Granada, CO (81041)

02:10 AM MDT del 27 Marzo 2015 (GMT -0600)
Schenck Farms | | Change Station
CLOSE
Current Station
Stazione meteo personale
Location: Holly, CO
Altitudine: 3619 ft
Stazioni meteo nelle vicinanze

Alt. 3619 ft 37.90 °N, 102.11 °W | Updated 8 minutes ago

Parzialmente nuvoloso
Parzialmente nuvoloso
48.3 °F
Sembra 48 °F
N
1.0
Vento Variabile Vento da ONO
Gusts 3.0 mph

Oggi
Massima -- | Minima -- °F
--% Possibilità di precip.
Ieri
Massima -- | Minima -- °F
Precip. -- in
6:42 AM 7:07 PM
Luna crescente, 50% visible
Pressione 30.14 in
Visibilità 10.0 miglia
Nuvole Alcuni 10000 ft
Raffreddamento del vento 48 °F
Punto di rugiada 28 °F
Umidità 46%
Piovosità 0.00 in
Spessore del manto nevoso Non disponibile.
Raggi UV 0 fuori da 12
Polline 9.60 fuori da 12
Qualità dell'aria Non disponibile.
Flu Activity Non disponibile.
METAR KLAA 270753Z AUTO 22003KT 10SM FEW100 00/M02 A3017 RMK AO2 SLP205 T00001022

More Conditions Fewer Conditions

Pressione 30.14 in
Visibilità 10.0 miglia
Nuvole Alcuni 10000 ft
Raffreddamento del vento 48 °F
Punto di rugiada 28 °F
Umidità 46%
Piovosità 0.00 in
Spessore del manto nevoso Non disponibile.
Raggi UV 0 fuori da 12
Polline 9.60 fuori da 12
Qualità dell'aria Non disponibile.
Flu Activity Non disponibile.
METAR KLAA 270753Z AUTO 22003KT 10SM FEW100 00/M02 A3017 RMK AO2 SLP205 T00001022

More Conditions Fewer Conditions

10-Day Weather Forecast

Almanac

Astronomia

Mar. 27, 2015 Alba Tramonto
Ora attuale
Crepuscolo civile
Crepuscolo nautico
Crepuscolo astronomico
Luna
Estensione della luce visibile
Lunghezza del giorno
Tomorrow will be .
, % of the Moon is Illuminated

Gli estremi di oggi

State Highs State Lows

Community

WunderPhotos

Upload Photos

1,808,705 foto caricate!

WunderBlogs® & News

Nearby

Qualità dell'aria

  Qualità dell'aria Indice AQ Inquinante
Not available.

Profondità neve

Stazione Profondità Altitudine

Attività sismica

Città  Distanza Mag. Data & Ora
Minimo Magnitudo Mostrato è 2.5.

Temperature delle acque costiere

Località Temperatura

Stations

Stazioni meteo nelle vicinanze

Ubicazione della stazione Temp. Raffreddamento del vento Punto di rugiada Umidità Vento Precip. Alt. Aggiornato Tipo